sensor_id;sensor_type;location;lat;lon;timestamp;P1;durP1;ratioP1;P2;durP2;ratioP2
53881;SDS011;39794;55.782;37.452;2023-06-22T00:01:39;8.90;;;5.43;;
53881;SDS011;39794;55.782;37.452;2023-06-22T00:04:08;11.80;;;5.65;;
53881;SDS011;39794;55.782;37.452;2023-06-22T00:06:36;12.35;;;6.18;;
53881;SDS011;39794;55.782;37.452;2023-06-22T00:09:05;14.98;;;6.10;;
53881;SDS011;39794;55.782;37.452;2023-06-22T00:11:36;12.60;;;5.60;;
53881;SDS011;39794;55.782;37.452;2023-06-22T00:14:04;11.02;;;5.55;;
53881;SDS011;39794;55.782;37.452;2023-06-22T00:16:33;14.05;;;5.38;;
53881;SDS011;39794;55.782;37.452;2023-06-22T00:19:01;13.60;;;5.47;;
53881;SDS011;39794;55.782;37.452;2023-06-22T00:21:31;10.48;;;6.10;;
53881;SDS011;39794;55.782;37.452;2023-06-22T00:23:59;13.23;;;6.32;;
53881;SDS011;39794;55.782;37.452;2023-06-22T00:26:28;11.48;;;5.57;;
53881;SDS011;39794;55.782;37.452;2023-06-22T00:28:57;10.20;;;5.47;;
53881;SDS011;39794;55.782;37.452;2023-06-22T00:31:26;13.07;;;6.15;;
53881;SDS011;39794;55.782;37.452;2023-06-22T00:33:55;15.40;;;5.50;;
53881;SDS011;39794;55.782;37.452;2023-06-22T00:36:23;10.38;;;5.63;;
53881;SDS011;39794;55.782;37.452;2023-06-22T00:38:52;8.75;;;4.80;;
53881;SDS011;39794;55.782;37.452;2023-06-22T00:41:20;11.13;;;4.80;;
53881;SDS011;39794;55.782;37.452;2023-06-22T00:43:49;11.43;;;4.47;;
53881;SDS011;39794;55.782;37.452;2023-06-22T00:46:19;14.93;;;4.65;;
53881;SDS011;39794;55.782;37.452;2023-06-22T00:48:48;9.15;;;4.82;;
53881;SDS011;39794;55.782;37.452;2023-06-22T00:51:16;11.98;;;5.88;;
53881;SDS011;39794;55.782;37.452;2023-06-22T00:53:51;12.95;;;6.18;;
53881;SDS011;39794;55.782;37.452;2023-06-22T00:56:20;17.27;;;6.38;;
53881;SDS011;39794;55.782;37.452;2023-06-22T00:58:57;12.88;;;6.47;;
53881;SDS011;39794;55.782;37.452;2023-06-22T01:01:28;10.93;;;6.88;;
53881;SDS011;39794;55.782;37.452;2023-06-22T01:03:59;10.65;;;6.00;;
53881;SDS011;39794;55.782;37.452;2023-06-22T01:06:32;14.57;;;6.68;;
53881;SDS011;39794;55.782;37.452;2023-06-22T01:09:06;10.70;;;5.75;;
53881;SDS011;39794;55.782;37.452;2023-06-22T01:11:39;9.75;;;5.25;;
53881;SDS011;39794;55.782;37.452;2023-06-22T01:16:48;11.05;;;5.85;;
53881;SDS011;39794;55.782;37.452;2023-06-22T01:19:25;12.20;;;6.63;;
53881;SDS011;39794;55.782;37.452;2023-06-22T01:22:02;15.13;;;6.03;;
53881;SDS011;39794;55.782;37.452;2023-06-22T01:24:32;11.45;;;6.40;;
53881;SDS011;39794;55.782;37.452;2023-06-22T01:27:09;13.18;;;6.60;;
53881;SDS011;39794;55.782;37.452;2023-06-22T01:29:51;10.63;;;6.40;;
53881;SDS011;39794;55.782;37.452;2023-06-22T01:32:22;15.13;;;6.03;;
53881;SDS011;39794;55.782;37.452;2023-06-22T01:34:50;13.02;;;7.18;;
53881;SDS011;39794;55.782;37.452;2023-06-22T01:37:19;16.83;;;6.18;;
53881;SDS011;39794;55.782;37.452;2023-06-22T01:39:50;12.07;;;5.47;;
53881;SDS011;39794;55.782;37.452;2023-06-22T01:42:21;11.70;;;5.97;;
53881;SDS011;39794;55.782;37.452;2023-06-22T01:44:51;13.85;;;6.32;;
53881;SDS011;39794;55.782;37.452;2023-06-22T01:47:32;13.02;;;6.07;;
53881;SDS011;39794;55.782;37.452;2023-06-22T01:50:02;12.40;;;6.68;;
53881;SDS011;39794;55.782;37.452;2023-06-22T01:52:32;12.43;;;6.00;;
53881;SDS011;39794;55.782;37.452;2023-06-22T01:55:01;18.48;;;6.03;;
53881;SDS011;39794;55.782;37.452;2023-06-22T01:57:31;11.35;;;6.60;;
53881;SDS011;39794;55.782;37.452;2023-06-22T02:00:02;8.07;;;5.47;;
53881;SDS011;39794;55.782;37.452;2023-06-22T02:02:43;12.38;;;5.00;;
53881;SDS011;39794;55.782;37.452;2023-06-22T02:05:18;9.77;;;5.40;;
53881;SDS011;39794;55.782;37.452;2023-06-22T02:07:49;13.73;;;5.55;;
53881;SDS011;39794;55.782;37.452;2023-06-22T02:10:36;12.80;;;6.15;;
53881;SDS011;39794;55.782;37.452;2023-06-22T02:13:08;12.38;;;6.35;;
53881;SDS011;39794;55.782;37.452;2023-06-22T02:15:39;12.57;;;6.00;;
53881;SDS011;39794;55.782;37.452;2023-06-22T02:18:07;14.65;;;6.35;;
53881;SDS011;39794;55.782;37.452;2023-06-22T02:20:36;14.90;;;6.68;;
53881;SDS011;39794;55.782;37.452;2023-06-22T02:23:05;10.18;;;6.18;;
53881;SDS011;39794;55.782;37.452;2023-06-22T02:25:35;16.95;;;6.53;;
53881;SDS011;39794;55.782;37.452;2023-06-22T02:28:04;12.15;;;6.05;;
53881;SDS011;39794;55.782;37.452;2023-06-22T02:30:33;14.57;;;7.10;;
53881;SDS011;39794;55.782;37.452;2023-06-22T02:33:03;14.55;;;5.80;;
53881;SDS011;39794;55.782;37.452;2023-06-22T02:35:32;13.90;;;6.50;;
53881;SDS011;39794;55.782;37.452;2023-06-22T02:38:03;16.05;;;6.35;;
53881;SDS011;39794;55.782;37.452;2023-06-22T02:40:32;12.60;;;5.75;;
53881;SDS011;39794;55.782;37.452;2023-06-22T02:43:00;13.00;;;5.75;;
53881;SDS011;39794;55.782;37.452;2023-06-22T02:45:31;13.55;;;6.10;;
53881;SDS011;39794;55.782;37.452;2023-06-22T02:47:59;13.80;;;5.78;;
53881;SDS011;39794;55.782;37.452;2023-06-22T02:50:30;13.32;;;5.32;;
53881;SDS011;39794;55.782;37.452;2023-06-22T02:52:59;11.38;;;4.97;;
53881;SDS011;39794;55.782;37.452;2023-06-22T02:55:31;10.98;;;5.35;;
53881;SDS011;39794;55.782;37.452;2023-06-22T02:58:00;7.47;;;4.90;;
53881;SDS011;39794;55.782;37.452;2023-06-22T03:00:34;11.32;;;5.00;;
53881;SDS011;39794;55.782;37.452;2023-06-22T03:03:05;8.65;;;4.78;;
53881;SDS011;39794;55.782;37.452;2023-06-22T03:05:35;10.23;;;4.80;;
53881;SDS011;39794;55.782;37.452;2023-06-22T03:08:04;14.27;;;5.18;;
53881;SDS011;39794;55.782;37.452;2023-06-22T03:10:34;9.85;;;5.38;;
53881;SDS011;39794;55.782;37.452;2023-06-22T03:13:02;12.18;;;5.20;;
53881;SDS011;39794;55.782;37.452;2023-06-22T03:15:32;10.90;;;4.82;;
53881;SDS011;39794;55.782;37.452;2023-06-22T03:18:01;10.98;;;4.25;;
53881;SDS011;39794;55.782;37.452;2023-06-22T03:20:30;10.60;;;4.60;;
53881;SDS011;39794;55.782;37.452;2023-06-22T03:23:02;12.90;;;5.03;;
53881;SDS011;39794;55.782;37.452;2023-06-22T03:25:32;9.60;;;4.65;;
53881;SDS011;39794;55.782;37.452;2023-06-22T03:28:02;10.63;;;4.72;;
53881;SDS011;39794;55.782;37.452;2023-06-22T03:30:32;12.38;;;4.57;;
53881;SDS011;39794;55.782;37.452;2023-06-22T03:33:00;12.45;;;4.93;;
53881;SDS011;39794;55.782;37.452;2023-06-22T03:35:29;10.85;;;4.93;;
53881;SDS011;39794;55.782;37.452;2023-06-22T03:37:57;8.90;;;4.93;;
53881;SDS011;39794;55.782;37.452;2023-06-22T03:40:27;15.35;;;4.55;;
53881;SDS011;39794;55.782;37.452;2023-06-22T03:42:56;11.60;;;4.65;;
53881;SDS011;39794;55.782;37.452;2023-06-22T03:45:25;15.60;;;4.75;;
53881;SDS011;39794;55.782;37.452;2023-06-22T03:47:54;8.48;;;4.43;;
53881;SDS011;39794;55.782;37.452;2023-06-22T03:50:22;12.20;;;4.88;;
53881;SDS011;39794;55.782;37.452;2023-06-22T03:52:51;8.60;;;4.22;;
53881;SDS011;39794;55.782;37.452;2023-06-22T03:55:20;13.20;;;4.53;;
53881;SDS011;39794;55.782;37.452;2023-06-22T03:57:50;10.40;;;4.80;;
53881;SDS011;39794;55.782;37.452;2023-06-22T04:00:20;7.38;;;4.20;;
53881;SDS011;39794;55.782;37.452;2023-06-22T04:02:48;10.38;;;3.58;;
53881;SDS011;39794;55.782;37.452;2023-06-22T04:05:17;6.45;;;3.90;;
53881;SDS011;39794;55.782;37.452;2023-06-22T04:07:46;8.07;;;3.40;;
53881;SDS011;39794;55.782;37.452;2023-06-22T04:10:14;6.43;;;3.22;;
53881;SDS011;39794;55.782;37.452;2023-06-22T04:12:45;6.72;;;3.40;;
53881;SDS011;39794;55.782;37.452;2023-06-22T04:15:15;8.02;;;3.47;;
53881;SDS011;39794;55.782;37.452;2023-06-22T04:17:44;5.60;;;3.28;;
53881;SDS011;39794;55.782;37.452;2023-06-22T04:20:13;6.15;;;2.67;;
53881;SDS011;39794;55.782;37.452;2023-06-22T04:22:41;13.20;;;3.30;;
53881;SDS011;39794;55.782;37.452;2023-06-22T04:25:10;6.13;;;3.45;;
53881;SDS011;39794;55.782;37.452;2023-06-22T04:27:38;5.22;;;2.88;;
53881;SDS011;39794;55.782;37.452;2023-06-22T04:30:07;4.93;;;2.92;;
53881;SDS011;39794;55.782;37.452;2023-06-22T04:32:39;5.95;;;2.75;;
53881;SDS011;39794;55.782;37.452;2023-06-22T04:35:08;4.57;;;2.63;;
53881;SDS011;39794;55.782;37.452;2023-06-22T04:37:37;4.32;;;2.50;;
53881;SDS011;39794;55.782;37.452;2023-06-22T04:40:06;3.83;;;2.92;;
53881;SDS011;39794;55.782;37.452;2023-06-22T04:42:37;10.10;;;3.00;;
53881;SDS011;39794;55.782;37.452;2023-06-22T04:45:07;7.80;;;2.83;;
53881;SDS011;39794;55.782;37.452;2023-06-22T04:47:38;4.55;;;2.85;;
53881;SDS011;39794;55.782;37.452;2023-06-22T04:50:07;4.78;;;2.97;;
53881;SDS011;39794;55.782;37.452;2023-06-22T04:52:36;6.72;;;3.17;;
53881;SDS011;39794;55.782;37.452;2023-06-22T04:55:06;4.10;;;2.45;;
53881;SDS011;39794;55.782;37.452;2023-06-22T04:57:35;7.28;;;3.58;;
53881;SDS011;39794;55.782;37.452;2023-06-22T05:00:06;7.25;;;3.40;;
53881;SDS011;39794;55.782;37.452;2023-06-22T05:05:10;6.07;;;3.88;;
53881;SDS011;39794;55.782;37.452;2023-06-22T05:07:41;5.07;;;3.50;;
53881;SDS011;39794;55.782;37.452;2023-06-22T05:10:11;6.80;;;3.10;;
53881;SDS011;39794;55.782;37.452;2023-06-22T05:12:40;6.47;;;4.05;;
53881;SDS011;39794;55.782;37.452;2023-06-22T05:15:09;6.35;;;4.00;;
53881;SDS011;39794;55.782;37.452;2023-06-22T05:17:38;4.10;;;2.80;;
53881;SDS011;39794;55.782;37.452;2023-06-22T05:20:12;5.15;;;3.40;;
53881;SDS011;39794;55.782;37.452;2023-06-22T05:22:41;4.68;;;3.35;;
53881;SDS011;39794;55.782;37.452;2023-06-22T05:25:10;5.60;;;3.22;;
53881;SDS011;39794;55.782;37.452;2023-06-22T05:27:39;6.40;;;2.80;;
53881;SDS011;39794;55.782;37.452;2023-06-22T05:30:08;5.65;;;3.15;;
53881;SDS011;39794;55.782;37.452;2023-06-22T05:32:38;4.50;;;3.45;;
53881;SDS011;39794;55.782;37.452;2023-06-22T05:35:07;5.90;;;3.22;;
53881;SDS011;39794;55.782;37.452;2023-06-22T05:37:37;5.38;;;3.33;;
53881;SDS011;39794;55.782;37.452;2023-06-22T05:40:06;9.18;;;3.78;;
53881;SDS011;39794;55.782;37.452;2023-06-22T05:42:36;4.60;;;2.90;;
53881;SDS011;39794;55.782;37.452;2023-06-22T05:45:05;6.15;;;3.60;;
53881;SDS011;39794;55.782;37.452;2023-06-22T05:47:34;4.47;;;2.70;;
53881;SDS011;39794;55.782;37.452;2023-06-22T05:50:03;6.40;;;3.28;;
53881;SDS011;39794;55.782;37.452;2023-06-22T05:52:40;8.25;;;4.28;;
53881;SDS011;39794;55.782;37.452;2023-06-22T05:55:08;6.10;;;3.40;;
53881;SDS011;39794;55.782;37.452;2023-06-22T05:57:37;8.52;;;3.20;;
53881;SDS011;39794;55.782;37.452;2023-06-22T06:00:06;5.28;;;3.70;;
53881;SDS011;39794;55.782;37.452;2023-06-22T06:02:37;8.43;;;3.13;;
53881;SDS011;39794;55.782;37.452;2023-06-22T06:05:11;6.97;;;3.10;;
53881;SDS011;39794;55.782;37.452;2023-06-22T06:07:42;6.45;;;3.30;;
53881;SDS011;39794;55.782;37.452;2023-06-22T06:10:11;4.32;;;2.72;;
53881;SDS011;39794;55.782;37.452;2023-06-22T06:12:40;5.82;;;2.92;;
53881;SDS011;39794;55.782;37.452;2023-06-22T06:15:08;7.43;;;3.60;;
53881;SDS011;39794;55.782;37.452;2023-06-22T06:17:44;5.82;;;3.08;;
53881;SDS011;39794;55.782;37.452;2023-06-22T06:20:14;6.60;;;3.47;;
53881;SDS011;39794;55.782;37.452;2023-06-22T06:22:44;7.10;;;2.90;;
53881;SDS011;39794;55.782;37.452;2023-06-22T06:25:13;5.18;;;3.08;;
53881;SDS011;39794;55.782;37.452;2023-06-22T06:27:45;5.30;;;3.15;;
53881;SDS011;39794;55.782;37.452;2023-06-22T06:30:14;4.43;;;2.60;;
53881;SDS011;39794;55.782;37.452;2023-06-22T06:32:44;5.68;;;2.70;;
53881;SDS011;39794;55.782;37.452;2023-06-22T06:35:13;8.35;;;3.28;;
53881;SDS011;39794;55.782;37.452;2023-06-22T06:37:45;6.78;;;2.83;;
53881;SDS011;39794;55.782;37.452;2023-06-22T06:40:16;4.40;;;2.78;;
53881;SDS011;39794;55.782;37.452;2023-06-22T06:42:46;4.85;;;3.08;;
53881;SDS011;39794;55.782;37.452;2023-06-22T06:45:17;6.10;;;2.97;;
53881;SDS011;39794;55.782;37.452;2023-06-22T06:47:46;5.28;;;2.22;;
53881;SDS011;39794;55.782;37.452;2023-06-22T06:50:15;5.03;;;2.90;;
53881;SDS011;39794;55.782;37.452;2023-06-22T06:52:45;6.03;;;3.08;;
53881;SDS011;39794;55.782;37.452;2023-06-22T06:55:17;4.13;;;2.83;;
53881;SDS011;39794;55.782;37.452;2023-06-22T06:57:47;4.43;;;2.78;;
53881;SDS011;39794;55.782;37.452;2023-06-22T07:00:17;3.42;;;2.08;;
53881;SDS011;39794;55.782;37.452;2023-06-22T07:02:46;4.88;;;2.65;;
53881;SDS011;39794;55.782;37.452;2023-06-22T07:05:16;9.63;;;3.35;;
53881;SDS011;39794;55.782;37.452;2023-06-22T07:07:46;4.53;;;2.78;;
53881;SDS011;39794;55.782;37.452;2023-06-22T07:10:14;6.60;;;3.78;;
53881;SDS011;39794;55.782;37.452;2023-06-22T07:12:43;2.92;;;2.60;;
53881;SDS011;39794;55.782;37.452;2023-06-22T07:15:12;4.22;;;2.83;;
53881;SDS011;39794;55.782;37.452;2023-06-22T07:17:41;3.83;;;2.70;;
53881;SDS011;39794;55.782;37.452;2023-06-22T07:20:10;3.17;;;2.22;;
53881;SDS011;39794;55.782;37.452;2023-06-22T07:22:40;8.10;;;2.40;;
53881;SDS011;39794;55.782;37.452;2023-06-22T07:25:11;9.55;;;3.35;;
53881;SDS011;39794;55.782;37.452;2023-06-22T07:27:45;4.82;;;2.70;;
53881;SDS011;39794;55.782;37.452;2023-06-22T07:30:15;4.68;;;3.50;;
53881;SDS011;39794;55.782;37.452;2023-06-22T07:32:43;4.75;;;2.80;;
53881;SDS011;39794;55.782;37.452;2023-06-22T07:35:12;3.78;;;2.70;;
53881;SDS011;39794;55.782;37.452;2023-06-22T07:37:40;4.40;;;2.78;;
53881;SDS011;39794;55.782;37.452;2023-06-22T07:40:11;8.52;;;3.15;;
53881;SDS011;39794;55.782;37.452;2023-06-22T07:42:40;6.63;;;2.63;;
53881;SDS011;39794;55.782;37.452;2023-06-22T07:45:09;3.88;;;2.47;;
53881;SDS011;39794;55.782;37.452;2023-06-22T07:47:39;6.50;;;2.80;;
53881;SDS011;39794;55.782;37.452;2023-06-22T07:50:08;7.53;;;3.38;;
53881;SDS011;39794;55.782;37.452;2023-06-22T07:52:37;3.85;;;2.65;;
53881;SDS011;39794;55.782;37.452;2023-06-22T07:55:06;8.55;;;3.67;;
53881;SDS011;39794;55.782;37.452;2023-06-22T07:57:37;6.00;;;2.63;;
53881;SDS011;39794;55.782;37.452;2023-06-22T08:00:05;6.32;;;3.10;;
53881;SDS011;39794;55.782;37.452;2023-06-22T08:02:44;5.55;;;2.40;;
53881;SDS011;39794;55.782;37.452;2023-06-22T08:05:14;6.60;;;2.17;;
53881;SDS011;39794;55.782;37.452;2023-06-22T08:07:48;4.32;;;2.75;;
53881;SDS011;39794;55.782;37.452;2023-06-22T08:10:17;7.45;;;3.40;;
53881;SDS011;39794;55.782;37.452;2023-06-22T08:12:48;5.32;;;2.83;;
53881;SDS011;39794;55.782;37.452;2023-06-22T08:15:18;4.95;;;2.67;;
53881;SDS011;39794;55.782;37.452;2023-06-22T08:17:47;5.22;;;2.95;;
53881;SDS011;39794;55.782;37.452;2023-06-22T08:20:16;3.95;;;2.70;;
53881;SDS011;39794;55.782;37.452;2023-06-22T08:22:45;4.78;;;3.10;;
53881;SDS011;39794;55.782;37.452;2023-06-22T08:25:13;9.32;;;3.17;;
53881;SDS011;39794;55.782;37.452;2023-06-22T08:27:44;6.35;;;2.90;;
53881;SDS011;39794;55.782;37.452;2023-06-22T08:30:15;4.40;;;2.97;;
53881;SDS011;39794;55.782;37.452;2023-06-22T08:32:45;4.88;;;2.88;;
53881;SDS011;39794;55.782;37.452;2023-06-22T08:35:13;7.95;;;3.20;;
53881;SDS011;39794;55.782;37.452;2023-06-22T08:37:45;4.18;;;2.88;;
53881;SDS011;39794;55.782;37.452;2023-06-22T08:40:19;4.10;;;3.00;;
53881;SDS011;39794;55.782;37.452;2023-06-22T08:42:48;6.88;;;3.10;;
53881;SDS011;39794;55.782;37.452;2023-06-22T08:45:18;5.90;;;3.00;;
53881;SDS011;39794;55.782;37.452;2023-06-22T08:47:47;4.78;;;2.65;;
53881;SDS011;39794;55.782;37.452;2023-06-22T08:50:16;5.53;;;2.95;;
53881;SDS011;39794;55.782;37.452;2023-06-22T08:52:44;8.10;;;2.83;;
53881;SDS011;39794;55.782;37.452;2023-06-22T08:55:13;5.85;;;2.95;;
53881;SDS011;39794;55.782;37.452;2023-06-22T08:57:42;7.93;;;2.85;;
53881;SDS011;39794;55.782;37.452;2023-06-22T09:00:11;4.05;;;3.00;;
53881;SDS011;39794;55.782;37.452;2023-06-22T09:02:47;3.75;;;2.85;;
53881;SDS011;39794;55.782;37.452;2023-06-22T09:05:16;4.10;;;2.90;;
53881;SDS011;39794;55.782;37.452;2023-06-22T09:07:45;5.32;;;2.97;;
53881;SDS011;39794;55.782;37.452;2023-06-22T09:10:16;4.80;;;3.00;;
53881;SDS011;39794;55.782;37.452;2023-06-22T09:12:45;4.97;;;3.08;;
53881;SDS011;39794;55.782;37.452;2023-06-22T09:15:14;4.88;;;3.10;;
53881;SDS011;39794;55.782;37.452;2023-06-22T09:17:44;5.40;;;3.25;;
53881;SDS011;39794;55.782;37.452;2023-06-22T09:20:16;5.50;;;3.25;;
53881;SDS011;39794;55.782;37.452;2023-06-22T09:22:44;5.85;;;2.60;;
53881;SDS011;39794;55.782;37.452;2023-06-22T09:25:13;3.97;;;3.05;;
53881;SDS011;39794;55.782;37.452;2023-06-22T09:27:42;7.43;;;3.30;;
53881;SDS011;39794;55.782;37.452;2023-06-22T09:30:11;5.50;;;3.05;;
53881;SDS011;39794;55.782;37.452;2023-06-22T09:32:39;5.32;;;3.10;;
53881;SDS011;39794;55.782;37.452;2023-06-22T09:35:09;3.60;;;2.85;;
53881;SDS011;39794;55.782;37.452;2023-06-22T09:37:41;3.75;;;3.10;;
53881;SDS011;39794;55.782;37.452;2023-06-22T09:40:10;4.05;;;3.63;;
53881;SDS011;39794;55.782;37.452;2023-06-22T09:42:41;5.93;;;3.10;;
53881;SDS011;39794;55.782;37.452;2023-06-22T09:45:09;6.07;;;3.30;;
53881;SDS011;39794;55.782;37.452;2023-06-22T09:47:38;5.90;;;3.13;;
53881;SDS011;39794;55.782;37.452;2023-06-22T09:50:07;4.57;;;3.70;;
53881;SDS011;39794;55.782;37.452;2023-06-22T09:52:36;5.32;;;3.05;;
53881;SDS011;39794;55.782;37.452;2023-06-22T09:55:09;5.47;;;3.08;;
53881;SDS011;39794;55.782;37.452;2023-06-22T09:57:38;6.60;;;3.65;;
53881;SDS011;39794;55.782;37.452;2023-06-22T10:00:08;5.93;;;3.20;;
53881;SDS011;39794;55.782;37.452;2023-06-22T10:02:41;5.22;;;3.00;;
53881;SDS011;39794;55.782;37.452;2023-06-22T10:05:11;5.47;;;3.22;;
53881;SDS011;39794;55.782;37.452;2023-06-22T10:07:40;3.83;;;2.97;;
53881;SDS011;39794;55.782;37.452;2023-06-22T10:10:12;9.55;;;3.45;;
53881;SDS011;39794;55.782;37.452;2023-06-22T10:12:45;5.82;;;3.42;;
53881;SDS011;39794;55.782;37.452;2023-06-22T10:15:15;4.05;;;3.13;;
53881;SDS011;39794;55.782;37.452;2023-06-22T10:17:44;6.95;;;3.33;;
53881;SDS011;39794;55.782;37.452;2023-06-22T10:20:13;5.10;;;2.90;;
53881;SDS011;39794;55.782;37.452;2023-06-22T10:22:42;5.50;;;3.05;;
53881;SDS011;39794;55.782;37.452;2023-06-22T10:25:13;5.45;;;3.60;;
53881;SDS011;39794;55.782;37.452;2023-06-22T10:27:42;4.97;;;3.53;;
53881;SDS011;39794;55.782;37.452;2023-06-22T10:30:11;5.55;;;3.10;;
53881;SDS011;39794;55.782;37.452;2023-06-22T10:32:41;5.13;;;3.35;;
53881;SDS011;39794;55.782;37.452;2023-06-22T10:35:11;5.63;;;3.50;;
53881;SDS011;39794;55.782;37.452;2023-06-22T10:37:43;5.95;;;3.20;;
53881;SDS011;39794;55.782;37.452;2023-06-22T10:40:14;5.10;;;3.22;;
53881;SDS011;39794;55.782;37.452;2023-06-22T10:42:44;5.57;;;3.50;;
53881;SDS011;39794;55.782;37.452;2023-06-22T10:45:13;3.88;;;3.33;;
53881;SDS011;39794;55.782;37.452;2023-06-22T10:47:42;3.60;;;3.10;;
53881;SDS011;39794;55.782;37.452;2023-06-22T10:50:11;6.32;;;3.53;;
53881;SDS011;39794;55.782;37.452;2023-06-22T10:52:39;4.93;;;3.63;;
53881;SDS011;39794;55.782;37.452;2023-06-22T10:55:09;6.13;;;3.42;;
53881;SDS011;39794;55.782;37.452;2023-06-22T10:57:39;4.80;;;3.40;;
53881;SDS011;39794;55.782;37.452;2023-06-22T11:00:12;6.45;;;3.47;;
53881;SDS011;39794;55.782;37.452;2023-06-22T11:02:44;3.72;;;3.30;;
53881;SDS011;39794;55.782;37.452;2023-06-22T11:05:13;4.72;;;3.13;;
53881;SDS011;39794;55.782;37.452;2023-06-22T11:07:43;4.75;;;3.33;;
53881;SDS011;39794;55.782;37.452;2023-06-22T11:10:15;5.20;;;2.95;;
53881;SDS011;39794;55.782;37.452;2023-06-22T11:12:46;4.82;;;3.10;;
53881;SDS011;39794;55.782;37.452;2023-06-22T11:15:16;8.40;;;3.72;;
53881;SDS011;39794;55.782;37.452;2023-06-22T11:17:45;3.65;;;2.90;;
53881;SDS011;39794;55.782;37.452;2023-06-22T11:20:13;7.18;;;3.55;;
53881;SDS011;39794;55.782;37.452;2023-06-22T11:22:42;4.90;;;3.75;;
53881;SDS011;39794;55.782;37.452;2023-06-22T11:25:11;3.75;;;3.08;;
53881;SDS011;39794;55.782;37.452;2023-06-22T11:27:39;4.65;;;3.10;;
53881;SDS011;39794;55.782;37.452;2023-06-22T11:30:10;4.25;;;3.20;;
53881;SDS011;39794;55.782;37.452;2023-06-22T11:32:38;4.53;;;3.65;;
53881;SDS011;39794;55.782;37.452;2023-06-22T11:35:07;7.57;;;3.45;;
53881;SDS011;39794;55.782;37.452;2023-06-22T11:37:36;4.03;;;3.58;;
53881;SDS011;39794;55.782;37.452;2023-06-22T11:40:05;8.07;;;4.05;;
53881;SDS011;39794;55.782;37.452;2023-06-22T11:42:37;5.15;;;3.47;;
53881;SDS011;39794;55.782;37.452;2023-06-22T11:45:06;4.63;;;3.90;;
53881;SDS011;39794;55.782;37.452;2023-06-22T11:47:36;4.43;;;3.85;;
53881;SDS011;39794;55.782;37.452;2023-06-22T11:50:06;4.10;;;3.70;;
53881;SDS011;39794;55.782;37.452;2023-06-22T11:52:35;10.57;;;4.60;;
53881;SDS011;39794;55.782;37.452;2023-06-22T11:55:04;5.35;;;3.60;;
53881;SDS011;39794;55.782;37.452;2023-06-22T11:57:35;6.68;;;3.72;;
53881;SDS011;39794;55.782;37.452;2023-06-22T12:00:05;12.05;;;3.63;;
53881;SDS011;39794;55.782;37.452;2023-06-22T12:02:43;10.32;;;3.63;;
53881;SDS011;39794;55.782;37.452;2023-06-22T12:05:12;5.78;;;3.50;;
53881;SDS011;39794;55.782;37.452;2023-06-22T12:07:41;6.22;;;3.70;;
53881;SDS011;39794;55.782;37.452;2023-06-22T12:10:09;3.58;;;3.25;;
53881;SDS011;39794;55.782;37.452;2023-06-22T12:12:41;3.88;;;3.42;;
53881;SDS011;39794;55.782;37.452;2023-06-22T12:15:10;4.13;;;3.60;;
53881;SDS011;39794;55.782;37.452;2023-06-22T12:17:39;5.70;;;3.30;;
53881;SDS011;39794;55.782;37.452;2023-06-22T12:20:10;4.65;;;3.65;;
53881;SDS011;39794;55.782;37.452;2023-06-22T12:22:40;4.60;;;3.33;;
53881;SDS011;39794;55.782;37.452;2023-06-22T12:25:09;4.85;;;3.50;;
53881;SDS011;39794;55.782;37.452;2023-06-22T12:27:37;4.35;;;3.50;;
53881;SDS011;39794;55.782;37.452;2023-06-22T12:30:06;5.97;;;3.75;;
53881;SDS011;39794;55.782;37.452;2023-06-22T12:32:36;5.45;;;3.88;;
53881;SDS011;39794;55.782;37.452;2023-06-22T12:35:05;4.35;;;3.95;;
53881;SDS011;39794;55.782;37.452;2023-06-22T12:37:41;6.05;;;4.03;;
53881;SDS011;39794;55.782;37.452;2023-06-22T12:40:11;6.22;;;3.55;;
53881;SDS011;39794;55.782;37.452;2023-06-22T12:42:39;4.72;;;3.10;;
53881;SDS011;39794;55.782;37.452;2023-06-22T12:45:09;8.30;;;3.47;;
53881;SDS011;39794;55.782;37.452;2023-06-22T12:47:38;7.47;;;3.60;;
53881;SDS011;39794;55.782;37.452;2023-06-22T12:50:07;7.47;;;3.35;;
53881;SDS011;39794;55.782;37.452;2023-06-22T12:52:36;5.47;;;3.42;;
53881;SDS011;39794;55.782;37.452;2023-06-22T12:55:08;4.07;;;3.63;;
53881;SDS011;39794;55.782;37.452;2023-06-22T12:57:37;4.20;;;3.30;;
53881;SDS011;39794;55.782;37.452;2023-06-22T13:00:06;6.97;;;3.38;;
53881;SDS011;39794;55.782;37.452;2023-06-22T13:02:38;5.03;;;3.78;;
53881;SDS011;39794;55.782;37.452;2023-06-22T13:05:07;5.25;;;3.85;;
53881;SDS011;39794;55.782;37.452;2023-06-22T13:07:36;5.15;;;3.33;;
53881;SDS011;39794;55.782;37.452;2023-06-22T13:10:05;4.88;;;3.10;;
53881;SDS011;39794;55.782;37.452;2023-06-22T13:12:36;7.82;;;4.00;;
53881;SDS011;39794;55.782;37.452;2023-06-22T13:15:05;5.28;;;3.30;;
53881;SDS011;39794;55.782;37.452;2023-06-22T13:17:34;4.78;;;3.00;;
53881;SDS011;39794;55.782;37.452;2023-06-22T13:20:03;7.80;;;3.53;;
53881;SDS011;39794;55.782;37.452;2023-06-22T13:22:35;4.60;;;3.40;;
53881;SDS011;39794;55.782;37.452;2023-06-22T13:25:08;4.83;;;3.30;;
53881;SDS011;39794;55.782;37.452;2023-06-22T13:27:41;5.20;;;3.08;;
53881;SDS011;39794;55.782;37.452;2023-06-22T13:30:10;4.68;;;3.28;;
53881;SDS011;39794;55.782;37.452;2023-06-22T13:32:41;4.28;;;3.65;;
53881;SDS011;39794;55.782;37.452;2023-06-22T13:35:10;6.20;;;3.50;;
53881;SDS011;39794;55.782;37.452;2023-06-22T13:37:39;5.88;;;3.72;;
53881;SDS011;39794;55.782;37.452;2023-06-22T13:40:08;4.78;;;3.30;;
53881;SDS011;39794;55.782;37.452;2023-06-22T13:42:37;5.65;;;3.85;;
53881;SDS011;39794;55.782;37.452;2023-06-22T13:45:07;4.40;;;3.47;;
53881;SDS011;39794;55.782;37.452;2023-06-22T13:47:37;4.85;;;3.58;;
53881;SDS011;39794;55.782;37.452;2023-06-22T13:50:06;5.75;;;3.30;;
53881;SDS011;39794;55.782;37.452;2023-06-22T13:52:35;3.88;;;3.42;;
53881;SDS011;39794;55.782;37.452;2023-06-22T13:55:04;8.38;;;3.53;;
53881;SDS011;39794;55.782;37.452;2023-06-22T13:57:33;5.20;;;3.50;;
53881;SDS011;39794;55.782;37.452;2023-06-22T14:00:05;7.38;;;3.83;;
53881;SDS011;39794;55.782;37.452;2023-06-22T14:02:37;14.32;;;3.78;;
53881;SDS011;39794;55.782;37.452;2023-06-22T14:05:06;4.95;;;3.50;;
53881;SDS011;39794;55.782;37.452;2023-06-22T14:07:35;9.95;;;4.03;;
53881;SDS011;39794;55.782;37.452;2023-06-22T14:10:04;5.70;;;3.58;;
53881;SDS011;39794;55.782;37.452;2023-06-22T14:12:33;4.63;;;3.38;;
53881;SDS011;39794;55.782;37.452;2023-06-22T14:15:02;3.40;;;3.05;;
53881;SDS011;39794;55.782;37.452;2023-06-22T14:17:33;6.07;;;3.60;;
53881;SDS011;39794;55.782;37.452;2023-06-22T14:20:02;5.22;;;3.22;;
53881;SDS011;39794;55.782;37.452;2023-06-22T14:22:32;7.10;;;3.53;;
53881;SDS011;39794;55.782;37.452;2023-06-22T14:25:02;5.13;;;3.13;;
53881;SDS011;39794;55.782;37.452;2023-06-22T14:27:32;5.53;;;3.50;;
53881;SDS011;39794;55.782;37.452;2023-06-22T14:30:01;4.53;;;3.53;;
53881;SDS011;39794;55.782;37.452;2023-06-22T14:32:34;4.53;;;3.90;;
53881;SDS011;39794;55.782;37.452;2023-06-22T14:35:03;4.78;;;3.95;;
53881;SDS011;39794;55.782;37.452;2023-06-22T14:37:32;6.88;;;3.70;;
53881;SDS011;39794;55.782;37.452;2023-06-22T14:40:01;4.78;;;3.40;;
53881;SDS011;39794;55.782;37.452;2023-06-22T14:42:29;4.28;;;3.60;;
53881;SDS011;39794;55.782;37.452;2023-06-22T14:44:58;4.80;;;3.33;;
53881;SDS011;39794;55.782;37.452;2023-06-22T14:47:26;4.30;;;3.88;;
53881;SDS011;39794;55.782;37.452;2023-06-22T14:49:57;4.50;;;3.22;;
53881;SDS011;39794;55.782;37.452;2023-06-22T14:52:30;6.13;;;3.33;;